createdAt,value
2019-05-13T00:00:53.717Z,102101.14
2019-05-13T00:03:56.751Z,102104.77
2019-05-13T00:07:00.462Z,102105.88
2019-05-13T00:10:06.813Z,102100.65
2019-05-13T00:13:10.517Z,102102.16
2019-05-13T00:16:14.292Z,102096.40
2019-05-13T00:19:18.329Z,102107.66
2019-05-13T00:22:23.427Z,102110.92
2019-05-13T00:25:27.370Z,102109.38
2019-05-13T00:28:30.996Z,102114.31
2019-05-13T00:31:34.923Z,102115.84
2019-05-13T00:34:38.483Z,102121.52
2019-05-13T00:37:44.367Z,102122.41
2019-05-13T00:40:47.748Z,102124.28
2019-05-13T00:43:53.253Z,102128.94
2019-05-13T00:46:56.874Z,102130.59
2019-05-13T00:50:00.593Z,102132.58
2019-05-13T00:53:04.608Z,102132.45
2019-05-13T00:56:08.425Z,102142.30
2019-05-13T00:59:14.157Z,102141.46
2019-05-13T01:02:17.608Z,102141.09
2019-05-13T01:05:23.299Z,102136.17
2019-05-13T01:08:26.831Z,102130.30
2019-05-13T01:11:34.259Z,102137.06
2019-05-13T01:14:37.230Z,102135.14
2019-05-13T01:17:40.942Z,102137.22
2019-05-13T01:20:44.594Z,102137.22
2019-05-13T01:23:48.334Z,102136.50
2019-05-13T01:26:54.018Z,102139.20
2019-05-13T01:29:57.484Z,102147.10
2019-05-13T01:33:01.127Z,102139.20
2019-05-13T01:36:05.590Z,102139.73
2019-05-13T01:39:09.290Z,102138.50
2019-05-13T01:42:13.792Z,102138.25
2019-05-13T01:45:17.722Z,102149.97
2019-05-13T01:48:23.861Z,102144.78
2019-05-13T01:51:27.245Z,102148.86
2019-05-13T01:54:33.640Z,102154.05
2019-05-13T01:57:36.479Z,102156.14
2019-05-13T02:00:40.241Z,102157.47
2019-05-13T02:03:44.379Z,102157.23
2019-05-13T02:06:48.084Z,102164.26
2019-05-13T02:09:53.407Z,102163.38
2019-05-13T02:12:57.299Z,102161.53
2019-05-13T02:16:03.914Z,102172.23
2019-05-13T02:19:06.451Z,102173.84
2019-05-13T02:22:10.237Z,102175.19
2019-05-13T02:25:14.171Z,102184.05
2019-05-13T02:28:18.017Z,102180.72
2019-05-13T02:31:38.915Z,102181.94
2019-05-13T02:34:27.374Z,102176.86
2019-05-13T02:37:34.117Z,102175.74
2019-05-13T02:40:36.437Z,102180.27
2019-05-13T02:43:44.201Z,102185.06
2019-05-13T02:46:45.393Z,102186.91
2019-05-13T02:49:49.126Z,102183.33
2019-05-13T02:52:53.207Z,102182.72
2019-05-13T02:55:57.031Z,102191.76
2019-05-13T02:59:03.840Z,102195.69
2019-05-13T03:02:06.147Z,102190.98
2019-05-13T03:05:13.239Z,102193.34
2019-05-13T03:08:34.193Z,102199.94
2019-05-13T03:11:22.706Z,102198.20
2019-05-13T03:14:28.217Z,102208.27
2019-05-13T03:17:43.068Z,102197.58
2019-05-13T03:20:45.573Z,102209.11
2019-05-13T03:23:52.310Z,102208.61
2019-05-13T03:26:54.786Z,102209.95
2019-05-13T03:29:58.495Z,102205.73
2019-05-13T03:33:10.402Z,102208.33
2019-05-13T03:36:08.450Z,102215.47
2019-05-13T03:39:16.378Z,102211.99
2019-05-13T03:42:18.004Z,102204.73
2019-05-13T03:45:24.820Z,102208.28
2019-05-13T03:48:28.600Z,102215.42
2019-05-13T03:51:32.763Z,102216.66
2019-05-13T03:54:37.083Z,102221.50
2019-05-13T03:57:42.619Z,102219.13
2019-05-13T04:00:46.462Z,102219.08
2019-05-13T04:03:52.802Z,102223.29
2019-05-13T04:06:56.276Z,102224.45
2019-05-13T04:10:03.282Z,102228.31
2019-05-13T04:13:05.692Z,102221.70
2019-05-13T04:16:12.374Z,102227.30
2019-05-13T04:19:15.006Z,102224.83
2019-05-13T04:22:18.753Z,102235.77
2019-05-13T04:25:23.452Z,102231.73
2019-05-13T04:28:27.271Z,102233.61
2019-05-13T04:31:33.293Z,102232.20
2019-05-13T04:34:36.493Z,102232.92
2019-05-13T04:37:42.999Z,102241.78
2019-05-13T04:40:45.767Z,102238.59
2019-05-13T04:43:49.383Z,102240.91
2019-05-13T04:46:53.293Z,102242.45
2019-05-13T04:49:57.023Z,102254.27
2019-05-13T04:53:03.180Z,102252.20
2019-05-13T04:56:06.160Z,102257.33
2019-05-13T04:59:12.514Z,102264.69
2019-05-13T05:02:39.874Z,102264.19
2019-05-13T05:05:44.769Z,102275.55
2019-05-13T05:09:03.142Z,102268.64
2019-05-13T05:12:42.493Z,102266.14
2019-05-13T05:15:52.462Z,102269.80
2019-05-13T05:19:18.402Z,102274.88
2019-05-13T05:22:43.219Z,102276.03
2019-05-13T05:25:55.369Z,102282.83
2019-05-13T05:29:23.293Z,102277.94
2019-05-13T05:32:36.117Z,102277.59
2019-05-13T05:36:03.842Z,102288.64
2019-05-13T05:39:13.210Z,102295.58
2019-05-13T05:42:21.725Z,102291.03
2019-05-13T05:45:24.988Z,102295.78
2019-05-13T05:48:31.501Z,102293.80
2019-05-13T05:51:36.947Z,102296.72
2019-05-13T05:54:42.284Z,102302.13
2019-05-13T05:57:47.582Z,102302.52
2019-05-13T06:00:52.976Z,102299.50
2019-05-13T06:03:58.727Z,102305.91
2019-05-13T06:07:03.615Z,102300.11
2019-05-13T06:10:08.218Z,102300.94
2019-05-13T06:13:12.328Z,102307.05
2019-05-13T06:16:16.188Z,102302.84
2019-05-13T06:19:22.500Z,102297.81
2019-05-13T06:22:26.531Z,102302.16
2019-05-13T06:25:33.631Z,102303.27
2019-05-13T06:28:35.598Z,102305.03
2019-05-13T06:31:41.741Z,102309.51
2019-05-13T06:34:45.165Z,102305.20
2019-05-13T06:37:48.950Z,102306.25
2019-05-13T06:41:03.380Z,102310.05
2019-05-13T06:43:58.176Z,102305.86
2019-05-13T06:47:02.724Z,102308.39
2019-05-13T06:50:07.302Z,102303.11
2019-05-13T06:53:12.647Z,102309.11
2019-05-13T06:56:16.365Z,102306.84
2019-05-13T06:59:22.172Z,102310.16
2019-05-13T07:02:25.353Z,102315.48
2019-05-13T07:05:28.926Z,102311.45
2019-05-13T07:08:32.482Z,102309.56
2019-05-13T07:11:36.177Z,102311.86
2019-05-13T07:14:41.332Z,102308.75
2019-05-13T07:17:45.036Z,102291.00
2019-05-13T07:20:48.677Z,102304.32
2019-05-13T07:23:54.887Z,102308.42
2019-05-13T07:26:57.562Z,102305.72
2019-05-13T07:30:02.397Z,102301.75
2019-05-13T07:33:06.195Z,102299.34
2019-05-13T07:36:12.522Z,102297.20
2019-05-13T07:39:15.405Z,102300.94
2019-05-13T07:42:19.258Z,102307.61
2019-05-13T07:45:22.813Z,102306.41
2019-05-13T07:48:27.805Z,102302.25
2019-05-13T07:51:32.204Z,102310.98
2019-05-13T07:54:36.040Z,102305.40
2019-05-13T07:57:42.182Z,102301.61
2019-05-13T08:00:45.165Z,102302.47
2019-05-13T08:03:51.436Z,102301.94
2019-05-13T08:06:54.121Z,102297.50
2019-05-13T08:10:00.233Z,102310.48
2019-05-13T08:13:03.336Z,102302.58
2019-05-13T08:16:07.266Z,102289.17
2019-05-13T08:19:12.313Z,102287.48
2019-05-13T08:22:16.317Z,102290.30
2019-05-13T08:25:22.164Z,102290.30
2019-05-13T08:28:25.596Z,102291.92
2019-05-13T08:31:32.052Z,102296.74
2019-05-13T08:34:34.747Z,102290.42
2019-05-13T08:37:38.545Z,102301.53
2019-05-13T08:40:42.599Z,102296.82
2019-05-13T08:43:46.430Z,102295.09
2019-05-13T08:46:51.921Z,102291.75
2019-05-13T08:49:55.650Z,102289.78
2019-05-13T08:53:01.632Z,102286.56
2019-05-13T08:56:04.747Z,102281.05
2019-05-13T08:59:08.441Z,102290.76
2019-05-13T09:02:12.224Z,102283.39
2019-05-13T09:05:16.180Z,102288.44
2019-05-13T09:08:22.322Z,102277.45
2019-05-13T09:11:25.929Z,102282.59
2019-05-13T09:14:32.120Z,102270.52
2019-05-13T09:17:35.001Z,102265.48
2019-05-13T09:20:40.958Z,102281.41
2019-05-13T09:23:44.258Z,102276.63
2019-05-13T09:26:48.153Z,102267.59
2019-05-13T09:29:51.992Z,102281.29
2019-05-13T09:32:55.807Z,102278.79
2019-05-13T09:36:01.898Z,102270.73
2019-05-13T09:39:07.501Z,102271.52
2019-05-13T09:42:12.678Z,102261.58
2019-05-13T09:45:16.567Z,102258.30
2019-05-13T09:48:22.678Z,102253.83
2019-05-13T09:51:26.104Z,102253.52
2019-05-13T09:54:32.830Z,102250.72
2019-05-13T09:57:35.366Z,102253.98
2019-05-13T10:00:41.866Z,102244.13
2019-05-13T10:03:54.153Z,102244.91
2019-05-13T10:06:49.933Z,102238.55
2019-05-13T10:09:53.675Z,102233.02
2019-05-13T10:13:11.402Z,102236.45
2019-05-13T10:16:02.872Z,102238.72
2019-05-13T10:19:06.698Z,102246.02
2019-05-13T10:22:12.030Z,102246.58
2019-05-13T10:25:18.619Z,102240.78
2019-05-13T10:28:23.131Z,102243.55
2019-05-13T10:31:26.936Z,102240.81
2019-05-13T10:34:32.088Z,102239.33
2019-05-13T10:37:36.349Z,102240.17
2019-05-13T10:40:43.052Z,102243.15
2019-05-13T10:43:45.666Z,102237.34
2019-05-13T10:46:52.009Z,102239.00
2019-05-13T10:49:54.900Z,102235.72
2019-05-13T10:52:58.543Z,102242.66
2019-05-13T10:56:03.293Z,102243.61
2019-05-13T10:59:07.234Z,102235.28
2019-05-13T11:02:13.436Z,102234.70
2019-05-13T11:05:16.631Z,102239.45
2019-05-13T11:08:22.174Z,102231.19
2019-05-13T11:11:26.322Z,102229.34
2019-05-13T11:14:32.253Z,102216.26
2019-05-13T11:17:36.049Z,102213.75
2019-05-13T11:20:41.930Z,102207.36
2019-05-13T11:23:45.308Z,102207.97
2019-05-13T11:26:48.954Z,102215.38
2019-05-13T11:29:52.606Z,102221.05
2019-05-13T11:32:56.365Z,102198.93
2019-05-13T11:36:02.948Z,102204.97
2019-05-13T11:39:08.008Z,102199.61
2019-05-13T11:42:13.568Z,102209.76
2019-05-13T11:45:17.576Z,102191.05
2019-05-13T11:48:23.498Z,102199.42
2019-05-13T11:51:26.778Z,102183.30
2019-05-13T11:54:30.512Z,102181.75
2019-05-13T11:57:34.169Z,102186.48
2019-05-13T12:00:53.527Z,102178.38
2019-05-13T12:03:57.204Z,102170.34
2019-05-13T12:07:03.559Z,102157.62
2019-05-13T12:10:06.977Z,102149.84
2019-05-13T12:13:12.502Z,102156.95
2019-05-13T12:16:16.149Z,102153.56
2019-05-13T12:19:21.928Z,102142.82
2019-05-13T12:22:25.343Z,102152.31
2019-05-13T12:25:28.942Z,102155.56
2019-05-13T12:28:32.667Z,102155.23
2019-05-13T12:31:36.384Z,102146.81
2019-05-13T12:34:44.991Z,102149.92
2019-05-13T12:37:45.694Z,102140.38
2019-05-13T12:40:52.482Z,102138.44
2019-05-13T12:43:54.827Z,102121.06
2019-05-13T12:46:58.557Z,102132.09
2019-05-13T12:50:03.379Z,102129.69
2019-05-13T12:53:07.510Z,102128.50
2019-05-13T12:56:12.559Z,102123.72
2019-05-13T12:59:16.736Z,102120.80
2019-05-13T13:02:22.624Z,102112.19
2019-05-13T13:05:32.961Z,102096.74
2019-05-13T13:08:43.035Z,102099.05
2019-05-13T13:11:37.336Z,102102.06
2019-05-13T13:14:44.424Z,102098.35
2019-05-13T13:17:46.463Z,102077.48
2019-05-13T13:20:58.063Z,102084.70
2019-05-13T13:23:55.854Z,102087.80
2019-05-13T13:26:59.839Z,102073.61
2019-05-13T13:30:08.455Z,102071.09
2019-05-13T13:33:13.880Z,102053.83
2019-05-13T13:36:16.433Z,102056.63
2019-05-13T13:39:25.211Z,102062.52
2019-05-13T13:42:32.165Z,102077.93
2019-05-13T13:45:52.037Z,102059.30
2019-05-13T13:48:38.682Z,102064.89
2019-05-13T13:51:44.726Z,102064.23
2019-05-13T13:54:58.895Z,102066.05
2019-05-13T13:57:56.693Z,102059.91
2019-05-13T14:01:10.562Z,102057.80
2019-05-13T14:04:06.501Z,102060.89
2019-05-13T14:07:27.838Z,102043.26
2019-05-13T14:10:16.091Z,102037.23
2019-05-13T14:13:21.785Z,102040.95
2019-05-13T14:16:32.489Z,102037.25
2019-05-13T14:19:32.506Z,102031.12
2019-05-13T14:22:36.411Z,102026.06
2019-05-13T14:25:42.207Z,102032.48
2019-05-13T14:28:46.121Z,102030.93
2019-05-13T14:31:52.056Z,102046.34
2019-05-13T14:34:55.351Z,102042.59
2019-05-13T14:37:59.287Z,102037.33
2019-05-13T14:41:03.660Z,102029.77
2019-05-13T14:44:09.035Z,102026.20
2019-05-13T14:47:12.914Z,102024.84
2019-05-13T14:50:16.517Z,102026.88
2019-05-13T14:53:21.436Z,102026.80
2019-05-13T14:56:25.154Z,102030.39
2019-05-13T14:59:30.751Z,102026.16
2019-05-13T15:02:35.929Z,102012.26
2019-05-13T15:05:42.998Z,102002.80
2019-05-13T15:08:46.701Z,102001.22
2019-05-13T15:11:52.749Z,102000.41
2019-05-13T15:14:55.849Z,102005.61
2019-05-13T15:18:01.466Z,102012.07
2019-05-13T15:21:05.703Z,102014.17
2019-05-13T15:24:12.334Z,102016.05
2019-05-13T15:27:16.856Z,102023.08
2019-05-13T15:30:21.864Z,102021.06
2019-05-13T15:33:25.807Z,102020.66
2019-05-13T15:36:31.514Z,102011.11
2019-05-13T15:39:35.305Z,102007.17
2019-05-13T15:42:39.012Z,102003.47
2019-05-13T15:45:42.743Z,101997.80
2019-05-13T15:48:46.401Z,101997.59
2019-05-13T15:51:50.082Z,102003.25
2019-05-13T15:54:53.771Z,101992.09
2019-05-13T15:57:57.472Z,101995.36
2019-05-13T16:01:02.889Z,101990.03
2019-05-13T16:04:06.864Z,101987.53
2019-05-13T16:07:12.240Z,101986.03
2019-05-13T16:10:16.314Z,101986.91
2019-05-13T16:13:22.233Z,101986.84
2019-05-13T16:16:25.984Z,101984.34
2019-05-13T16:19:32.628Z,101984.97
2019-05-13T16:22:35.280Z,101979.06
2019-05-13T16:25:41.462Z,101977.70
2019-05-13T16:28:44.430Z,101985.68
2019-05-13T16:31:48.163Z,101980.74
2019-05-13T16:34:52.216Z,101979.46
2019-05-13T16:37:55.884Z,101970.65
2019-05-13T16:40:59.741Z,101978.64
2019-05-13T16:44:03.447Z,101977.41
2019-05-13T16:47:07.252Z,101972.69
2019-05-13T16:50:11.667Z,101981.32
2019-05-13T16:53:15.350Z,101979.42
2019-05-13T16:56:27.654Z,101973.48
2019-05-13T16:59:24.352Z,101976.74
2019-05-13T17:02:27.943Z,101975.56
2019-05-13T17:05:32.624Z,101977.18
2019-05-13T17:08:36.430Z,101971.70
2019-05-13T17:11:41.461Z,101978.87
2019-05-13T17:14:45.403Z,101971.14
2019-05-13T17:17:51.372Z,101966.74
2019-05-13T17:20:54.937Z,101970.14
2019-05-13T17:23:58.565Z,101971.40
2019-05-13T17:27:02.862Z,101968.55
2019-05-13T17:30:13.743Z,101970.36
2019-05-13T17:33:22.886Z,101969.41
2019-05-13T17:36:25.689Z,101967.93
2019-05-13T17:39:29.344Z,101964.12
2019-05-13T17:42:32.862Z,101965.05
2019-05-13T17:45:41.540Z,101972.58
2019-05-13T17:48:43.644Z,101971.38
2019-05-13T17:51:49.056Z,101971.44
2019-05-13T17:54:52.790Z,101972.75
2019-05-13T17:57:56.573Z,101970.19
2019-05-13T18:01:01.707Z,101978.54
2019-05-13T18:04:05.750Z,101972.20
2019-05-13T18:07:11.981Z,101969.77
2019-05-13T18:10:14.992Z,101967.93
2019-05-13T18:13:18.648Z,101971.38
2019-05-13T18:16:22.280Z,101971.56
2019-05-13T18:19:25.962Z,101973.02
2019-05-13T18:22:31.162Z,101971.84
2019-05-13T18:25:35.146Z,101972.72
2019-05-13T18:28:42.096Z,101976.20
2019-05-13T18:31:44.463Z,101969.40
2019-05-13T18:34:48.051Z,101971.86
2019-05-13T18:37:51.594Z,101973.95
2019-05-13T18:40:58.534Z,101967.62
2019-05-13T18:44:02.084Z,101952.08
2019-05-13T18:47:05.791Z,101955.03
2019-05-13T18:50:11.655Z,101959.83
2019-05-13T18:53:16.429Z,101950.94
2019-05-13T18:56:23.008Z,101955.92
2019-05-13T18:59:26.799Z,101961.72
2019-05-13T19:02:32.089Z,101960.55
2019-05-13T19:05:35.889Z,101963.45
2019-05-13T19:08:41.356Z,101959.84
2019-05-13T19:11:44.846Z,101964.61
2019-05-13T19:14:56.397Z,101962.91
2019-05-13T19:18:00.024Z,101974.55
2019-05-13T19:21:03.683Z,101968.87
2019-05-13T19:24:10.328Z,101973.50
2019-05-13T19:27:12.904Z,101977.73
2019-05-13T19:30:16.686Z,101980.77
2019-05-13T19:33:22.522Z,101974.09
2019-05-13T19:36:26.428Z,101975.33
2019-05-13T19:39:31.258Z,101976.69
2019-05-13T19:42:34.918Z,101981.41
2019-05-13T19:45:41.415Z,101968.95
2019-05-13T19:48:45.792Z,101971.58
2019-05-13T19:51:57.270Z,101967.58
2019-05-13T19:55:04.113Z,101976.93
2019-05-13T20:01:42.289Z,101974.28
2019-05-13T20:05:04.838Z,101966.70
2019-05-13T20:08:18.125Z,101967.85
2019-05-13T20:11:41.808Z,101969.22
2019-05-13T20:14:51.739Z,101965.77
2019-05-13T20:18:01.311Z,101960.26
2019-05-13T20:21:06.080Z,101957.48
2019-05-13T20:24:11.754Z,101965.75
2019-05-13T20:27:21.095Z,101962.95
2019-05-13T20:30:24.772Z,101960.38
2019-05-13T20:33:51.602Z,101956.40
2019-05-13T20:36:59.032Z,101960.31
2019-05-13T20:40:08.237Z,101958.98
2019-05-13T20:43:12.092Z,101960.96
2019-05-13T20:46:15.757Z,101958.60
2019-05-13T20:49:33.761Z,101963.00
2019-05-13T20:52:37.598Z,101961.09
2019-05-13T20:55:41.695Z,101970.39
2019-05-13T20:58:47.761Z,101961.19
2019-05-13T21:01:51.358Z,101963.77
2019-05-13T21:04:55.027Z,101969.05
2019-05-13T21:07:58.690Z,101966.72
2019-05-13T21:11:14.697Z,101965.56
2019-05-13T21:14:18.659Z,101968.49
2019-05-13T21:17:25.211Z,101965.54
2019-05-13T21:20:32.153Z,101969.72
2019-05-13T21:23:46.346Z,101972.33
2019-05-13T21:26:55.697Z,101974.15
2019-05-13T21:30:06.854Z,101972.55
2019-05-13T21:33:07.912Z,101967.41
2019-05-13T21:36:15.329Z,101968.69
2019-05-13T21:39:21.245Z,101969.25
2019-05-13T21:42:26.783Z,101974.18
2019-05-13T21:45:30.490Z,101970.16
2019-05-13T21:48:34.251Z,101979.28
2019-05-13T21:51:38.075Z,101971.20
2019-05-13T21:54:42.287Z,101971.32
2019-05-13T21:57:46.374Z,101969.30
2019-05-13T22:00:52.006Z,101965.58
2019-05-13T22:03:58.325Z,101972.37
2019-05-13T22:07:01.938Z,101971.69
2019-05-13T22:10:08.362Z,101967.39
2019-05-13T22:13:13.676Z,101973.05
2019-05-13T22:16:17.449Z,101964.73
2019-05-13T22:19:22.591Z,101964.45
2019-05-13T22:22:26.478Z,101962.86
2019-05-13T22:25:31.573Z,101963.86
2019-05-13T22:28:38.193Z,101963.20
2019-05-13T22:31:42.541Z,101966.55
2019-05-13T22:34:46.467Z,101968.20
2019-05-13T22:37:51.226Z,101969.99
2019-05-13T22:40:55.386Z,101963.16
2019-05-13T22:43:59.184Z,101966.49
2019-05-13T22:47:04.115Z,101967.79
2019-05-13T22:50:11.238Z,101967.12
2019-05-13T22:53:14.406Z,101971.57
2019-05-13T22:56:27.335Z,101961.05
2019-05-13T22:59:32.248Z,101966.34
2019-05-13T23:02:36.019Z,101970.45
2019-05-13T23:05:41.601Z,101968.13
2019-05-13T23:08:47.930Z,101964.50
2019-05-13T23:11:51.542Z,101969.02
2019-05-13T23:14:55.355Z,101962.15
2019-05-13T23:18:11.334Z,101953.90
2019-05-13T23:21:14.589Z,101953.33
2019-05-13T23:24:21.865Z,101949.36
2019-05-13T23:27:25.729Z,101951.63
2019-05-13T23:30:31.257Z,101948.45
2019-05-13T23:33:35.178Z,101944.79
2019-05-13T23:36:38.787Z,101942.41
2019-05-13T23:39:42.672Z,101945.42
2019-05-13T23:42:47.676Z,101957.11
2019-05-13T23:45:53.311Z,101948.19
2019-05-13T23:48:57.027Z,101940.50
2019-05-13T23:52:02.496Z,101942.67
2019-05-13T23:55:06.879Z,101949.98
2019-05-13T23:58:12.204Z,101950.80
